createdAt,value
2022-11-02T00:00:39.636Z,0.00
2022-11-02T00:01:39.710Z,0.00
2022-11-02T00:02:39.633Z,0.00
2022-11-02T00:03:39.625Z,0.00
2022-11-02T00:04:39.560Z,0.00
2022-11-02T00:05:39.586Z,0.00
2022-11-02T00:06:39.556Z,0.00
2022-11-02T00:07:39.578Z,0.00
2022-11-02T00:08:39.548Z,0.00
2022-11-02T00:09:39.763Z,0.00
2022-11-02T00:10:39.622Z,0.00
2022-11-02T00:11:39.538Z,0.00
2022-11-02T00:12:39.477Z,0.00
2022-11-02T00:13:39.714Z,0.00
2022-11-02T00:14:39.582Z,0.00
2022-11-02T00:15:39.542Z,0.00
2022-11-02T00:16:39.529Z,0.00
2022-11-02T00:17:39.460Z,0.00
2022-11-02T00:18:39.435Z,0.00
2022-11-02T00:19:39.459Z,0.00
2022-11-02T00:20:39.406Z,0.00
2022-11-02T00:21:39.490Z,0.00
2022-11-02T00:22:39.388Z,0.00
2022-11-02T00:23:39.394Z,0.00
2022-11-02T00:24:39.449Z,0.00
2022-11-02T00:25:39.381Z,0.00
2022-11-02T00:26:39.371Z,0.00
2022-11-02T00:27:39.353Z,0.00
2022-11-02T00:28:39.360Z,0.00
2022-11-02T00:29:39.344Z,0.00
2022-11-02T00:30:39.365Z,0.00
2022-11-02T00:31:39.339Z,0.00
2022-11-02T00:32:39.293Z,0.00
2022-11-02T00:33:39.310Z,0.00
2022-11-02T00:34:39.488Z,0.00
2022-11-02T00:35:39.301Z,0.00
2022-11-02T00:36:39.494Z,0.00
2022-11-02T00:37:39.284Z,0.00
2022-11-02T00:38:39.308Z,0.00
2022-11-02T00:39:39.232Z,0.00
2022-11-02T00:40:39.448Z,0.00
2022-11-02T00:41:39.199Z,0.00
2022-11-02T00:42:39.190Z,0.00
2022-11-02T00:43:39.180Z,0.00
2022-11-02T00:44:39.192Z,0.00
2022-11-02T00:45:39.206Z,0.00
2022-11-02T00:46:39.182Z,0.00
2022-11-02T00:47:39.169Z,0.00
2022-11-02T00:48:39.158Z,0.00
2022-11-02T00:49:39.140Z,0.00
2022-11-02T00:50:39.130Z,0.00
2022-11-02T00:51:39.123Z,0.00
2022-11-02T00:52:39.113Z,0.00
2022-11-02T00:53:39.309Z,0.00
2022-11-02T00:54:39.089Z,0.00
2022-11-02T00:55:39.061Z,0.00
2022-11-02T00:56:39.078Z,0.00
2022-11-02T00:57:39.225Z,0.00
2022-11-02T00:58:39.016Z,0.00
2022-11-02T00:59:39.036Z,0.00
2022-11-02T01:00:39.018Z,0.00
2022-11-02T01:01:39.267Z,0.00
2022-11-02T01:02:39.119Z,0.00
2022-11-02T01:03:38.987Z,0.00
2022-11-02T01:04:39.160Z,0.00
2022-11-02T01:05:38.972Z,0.00
2022-11-02T01:06:38.984Z,0.00
2022-11-02T01:07:39.026Z,0.00
2022-11-02T01:08:38.917Z,0.00
2022-11-02T01:09:38.916Z,0.00
2022-11-02T01:10:42.734Z,0.00
2022-11-02T01:11:38.905Z,0.00
2022-11-02T01:12:38.920Z,0.00
2022-11-02T01:13:38.874Z,0.00
2022-11-02T01:14:38.879Z,0.00
2022-11-02T01:15:38.955Z,0.00
2022-11-02T01:16:38.897Z,0.00
2022-11-02T01:17:38.873Z,0.00
2022-11-02T01:18:38.815Z,0.00
2022-11-02T01:19:38.842Z,0.00
2022-11-02T01:20:38.805Z,0.00
2022-11-02T01:21:38.815Z,0.00
2022-11-02T01:22:38.782Z,0.00
2022-11-02T01:23:38.802Z,0.00
2022-11-02T01:24:38.772Z,0.00
2022-11-02T01:25:38.756Z,0.00
2022-11-02T01:26:38.719Z,0.00
2022-11-02T01:27:38.783Z,0.00
2022-11-02T01:28:38.729Z,0.00
2022-11-02T01:29:38.746Z,0.00
2022-11-02T01:30:38.729Z,0.00
2022-11-02T01:31:38.751Z,0.00
2022-11-02T01:32:38.703Z,0.00
2022-11-02T01:33:38.665Z,0.00
2022-11-02T01:34:38.686Z,0.00
2022-11-02T01:35:38.630Z,0.00
2022-11-02T01:36:38.632Z,0.00
2022-11-02T01:37:38.637Z,0.00
2022-11-02T01:38:38.637Z,0.00
2022-11-02T01:39:38.630Z,0.00
2022-11-02T01:40:38.613Z,0.00
2022-11-02T01:41:38.636Z,0.00
2022-11-02T01:42:38.579Z,0.00
2022-11-02T01:43:38.671Z,0.00
2022-11-02T01:44:38.583Z,0.00
2022-11-02T01:45:38.546Z,0.00
2022-11-02T01:46:38.903Z,0.00
2022-11-02T01:47:38.589Z,0.00
2022-11-02T01:48:38.541Z,0.00
2022-11-02T01:49:38.507Z,0.00
2022-11-02T01:50:38.509Z,0.00
2022-11-02T01:51:38.480Z,0.00
2022-11-02T01:52:38.500Z,0.00
2022-11-02T01:53:38.468Z,0.00
2022-11-02T01:54:38.493Z,0.00
2022-11-02T01:55:38.473Z,0.00
2022-11-02T01:56:38.437Z,0.00
2022-11-02T01:57:38.434Z,0.00
2022-11-02T01:58:38.394Z,0.00
2022-11-02T01:59:38.424Z,0.00
2022-11-02T02:00:38.399Z,0.00
2022-11-02T02:01:38.513Z,0.00
2022-11-02T02:02:38.559Z,0.00
2022-11-02T02:03:38.393Z,0.00
2022-11-02T02:04:38.344Z,0.00
2022-11-02T02:05:38.369Z,0.00
2022-11-02T02:06:38.330Z,0.00
2022-11-02T02:07:38.310Z,0.00
2022-11-02T02:08:38.311Z,0.00
2022-11-02T02:09:38.286Z,0.00
2022-11-02T02:10:38.303Z,0.00
2022-11-02T02:11:38.279Z,0.00
2022-11-02T02:12:38.251Z,0.00
2022-11-02T02:13:38.469Z,0.00
2022-11-02T02:14:38.227Z,0.00
2022-11-02T02:15:38.275Z,0.00
2022-11-02T02:16:38.257Z,0.00
2022-11-02T02:17:38.201Z,0.00
2022-11-02T02:18:38.229Z,0.00
2022-11-02T02:19:38.190Z,0.00
2022-11-02T02:20:38.189Z,0.00
2022-11-02T02:21:38.157Z,0.00
2022-11-02T02:22:38.179Z,0.00
2022-11-02T02:23:38.174Z,0.00
2022-11-02T02:24:38.144Z,0.00
2022-11-02T02:25:38.127Z,0.00
2022-11-02T02:26:38.110Z,0.00
2022-11-02T02:27:38.131Z,0.00
2022-11-02T02:28:38.086Z,0.00
2022-11-02T02:29:38.080Z,0.00
2022-11-02T02:30:38.081Z,0.00
2022-11-02T02:31:38.084Z,0.00
2022-11-02T02:32:38.065Z,0.00
2022-11-02T02:33:38.039Z,0.00
2022-11-02T02:34:38.033Z,0.00
2022-11-02T02:35:38.016Z,0.00
2022-11-02T02:36:38.023Z,0.00
2022-11-02T02:37:37.988Z,0.00
2022-11-02T02:38:37.984Z,0.00
2022-11-02T02:39:37.977Z,0.00
2022-11-02T02:40:37.949Z,0.00
2022-11-02T02:41:37.947Z,0.00
2022-11-02T02:42:37.941Z,0.00
2022-11-02T02:43:37.951Z,0.00
2022-11-02T02:44:37.927Z,0.00
2022-11-02T02:45:37.912Z,0.00
2022-11-02T02:46:40.479Z,0.00
2022-11-02T02:47:37.908Z,0.00
2022-11-02T02:48:37.884Z,0.00
2022-11-02T02:49:37.872Z,0.00
2022-11-02T02:50:37.850Z,0.00
2022-11-02T02:51:37.846Z,0.00
2022-11-02T02:52:37.828Z,0.00
2022-11-02T02:53:37.810Z,0.00
2022-11-02T02:54:37.796Z,0.00
2022-11-02T02:55:37.805Z,0.00
2022-11-02T02:56:37.808Z,0.00
2022-11-02T02:57:37.794Z,0.00
2022-11-02T02:58:37.785Z,0.00
2022-11-02T02:59:37.790Z,0.00
2022-11-02T03:00:37.762Z,0.00
2022-11-02T03:01:37.832Z,0.00
2022-11-02T03:02:37.886Z,0.00
2022-11-02T03:03:37.739Z,0.00
2022-11-02T03:04:37.749Z,0.00
2022-11-02T03:05:37.716Z,0.00
2022-11-02T03:06:37.701Z,0.00
2022-11-02T03:07:37.683Z,0.00
2022-11-02T03:08:37.877Z,0.00
2022-11-02T03:09:37.643Z,0.00
2022-11-02T03:10:37.635Z,0.00
2022-11-02T03:11:37.625Z,0.00
2022-11-02T03:12:37.626Z,0.00
2022-11-02T03:13:37.618Z,0.00
2022-11-02T03:14:37.612Z,0.00
2022-11-02T03:15:37.641Z,0.00
2022-11-02T03:16:37.561Z,0.00
2022-11-02T03:17:37.643Z,0.00
2022-11-02T03:18:37.573Z,0.00
2022-11-02T03:19:37.556Z,0.00
2022-11-02T03:20:37.551Z,0.00
2022-11-02T03:21:37.560Z,0.00
2022-11-02T03:22:37.525Z,0.00
2022-11-02T03:23:37.525Z,0.00
2022-11-02T03:24:37.558Z,0.00
2022-11-02T03:25:37.556Z,0.00
2022-11-02T03:26:37.472Z,0.00
2022-11-02T03:27:37.453Z,0.00
2022-11-02T03:28:37.489Z,0.00
2022-11-02T03:29:37.481Z,0.00
2022-11-02T03:30:37.427Z,0.00
2022-11-02T03:31:37.431Z,0.00
2022-11-02T03:32:37.423Z,0.00
2022-11-02T03:33:37.389Z,0.00
2022-11-02T03:34:37.406Z,0.00
2022-11-02T03:35:37.455Z,0.00
2022-11-02T03:36:37.405Z,0.00
2022-11-02T03:37:37.449Z,0.00
2022-11-02T03:38:37.357Z,0.00
2022-11-02T03:39:37.404Z,0.00
2022-11-02T03:40:37.349Z,0.00
2022-11-02T03:41:37.321Z,0.00
2022-11-02T03:42:37.307Z,0.00
2022-11-02T03:43:37.313Z,0.00
2022-11-02T03:44:37.303Z,0.00
2022-11-02T03:45:37.300Z,0.00
2022-11-02T03:46:37.292Z,0.00
2022-11-02T03:47:37.354Z,0.00
2022-11-02T03:48:37.257Z,0.00
2022-11-02T03:49:37.269Z,0.00
2022-11-02T03:50:37.242Z,0.00
2022-11-02T03:51:37.346Z,0.00
2022-11-02T03:52:37.206Z,0.00
2022-11-02T03:53:37.209Z,0.00
2022-11-02T03:54:37.217Z,0.00
2022-11-02T03:55:37.190Z,0.00
2022-11-02T03:56:37.176Z,0.00
2022-11-02T03:57:37.142Z,0.00
2022-11-02T03:58:37.159Z,0.00
2022-11-02T03:59:37.139Z,0.00
2022-11-02T04:00:37.144Z,0.00
2022-11-02T04:01:37.272Z,0.00
2022-11-02T04:02:37.203Z,0.00
2022-11-02T04:03:37.167Z,0.00
2022-11-02T04:04:37.052Z,0.00
2022-11-02T04:05:37.063Z,0.00
2022-11-02T04:06:37.116Z,0.00
2022-11-02T04:07:37.076Z,0.00
2022-11-02T04:08:37.043Z,0.00
2022-11-02T04:09:37.026Z,0.00
2022-11-02T04:10:37.028Z,0.00
2022-11-02T04:11:37.024Z,0.00
2022-11-02T04:12:37.005Z,0.00
2022-11-02T04:13:36.975Z,0.00
2022-11-02T04:14:36.996Z,0.00
2022-11-02T04:15:36.939Z,0.00
2022-11-02T04:16:37.139Z,0.00
2022-11-02T04:17:36.953Z,0.00
2022-11-02T04:18:36.925Z,0.00
2022-11-02T04:19:36.939Z,0.00
2022-11-02T04:20:36.881Z,0.00
2022-11-02T04:21:36.932Z,0.00
2022-11-02T04:22:36.939Z,0.00
2022-11-02T04:23:36.893Z,0.00
2022-11-02T04:24:36.870Z,0.00
2022-11-02T04:25:36.854Z,0.00
2022-11-02T04:26:36.867Z,0.00
2022-11-02T04:27:36.873Z,0.00
2022-11-02T04:28:36.859Z,0.00
2022-11-02T04:29:36.809Z,0.00
2022-11-02T04:30:36.778Z,0.00
2022-11-02T04:31:36.811Z,0.00
2022-11-02T04:32:36.785Z,0.00
2022-11-02T04:33:36.819Z,0.00
2022-11-02T04:34:36.991Z,0.00
2022-11-02T04:35:36.811Z,0.00
2022-11-02T04:36:36.733Z,0.00
2022-11-02T04:37:36.783Z,0.00
2022-11-02T04:38:36.731Z,0.00
2022-11-02T04:39:36.909Z,0.00
2022-11-02T04:40:36.765Z,0.00
2022-11-02T04:41:36.731Z,0.00
2022-11-02T04:42:36.691Z,0.00
2022-11-02T04:43:36.664Z,0.00
2022-11-02T04:44:36.676Z,0.00
2022-11-02T04:45:36.655Z,0.00
2022-11-02T04:46:36.664Z,0.00
2022-11-02T04:47:36.599Z,0.00
2022-11-02T04:48:36.651Z,0.00
2022-11-02T04:49:36.592Z,0.00
2022-11-02T04:50:36.631Z,0.00
2022-11-02T04:51:36.594Z,0.00
2022-11-02T04:52:36.596Z,0.00
2022-11-02T04:53:36.731Z,0.00
2022-11-02T04:54:36.563Z,0.00
2022-11-02T04:55:36.531Z,0.00
2022-11-02T04:56:36.507Z,0.00
2022-11-02T04:57:36.519Z,0.00
2022-11-02T04:58:36.509Z,0.00
2022-11-02T04:59:36.465Z,0.00
2022-11-02T05:00:36.690Z,0.00
2022-11-02T05:01:36.800Z,0.00
2022-11-02T05:02:36.589Z,0.00
2022-11-02T05:03:36.559Z,0.00
2022-11-02T05:04:36.448Z,0.00
2022-11-02T05:05:36.454Z,0.00
2022-11-02T05:06:36.413Z,0.00
2022-11-02T05:07:36.417Z,0.00
2022-11-02T05:08:36.446Z,0.00
2022-11-02T05:09:36.446Z,0.00
2022-11-02T05:10:36.362Z,0.00
2022-11-02T05:11:36.354Z,0.00
2022-11-02T05:12:36.335Z,0.00
2022-11-02T05:13:36.338Z,0.00
2022-11-02T05:14:36.339Z,0.00
2022-11-02T05:15:36.311Z,0.00
2022-11-02T05:16:36.365Z,0.00
2022-11-02T05:17:36.303Z,0.00
2022-11-02T05:18:36.296Z,0.00
2022-11-02T05:19:36.322Z,0.00
2022-11-02T05:20:36.225Z,0.00
2022-11-02T05:21:36.259Z,0.00
2022-11-02T05:22:36.272Z,0.00
2022-11-02T05:23:36.225Z,0.00
2022-11-02T05:24:36.231Z,0.00
2022-11-02T05:25:36.380Z,0.00
2022-11-02T05:26:36.204Z,0.00
2022-11-02T05:27:36.407Z,0.00
2022-11-02T05:28:36.360Z,0.00
2022-11-02T05:29:36.165Z,0.00
2022-11-02T05:30:36.115Z,0.00
2022-11-02T05:31:36.134Z,0.00
2022-11-02T05:32:36.325Z,4.00
2022-11-02T05:33:36.109Z,0.00
2022-11-02T05:34:36.114Z,0.00
2022-11-02T05:35:36.074Z,4.00
2022-11-02T05:36:36.120Z,4.00
2022-11-02T05:37:36.048Z,4.00
2022-11-02T05:38:36.161Z,4.00
2022-11-02T05:39:36.060Z,4.00
2022-11-02T05:40:36.142Z,4.00
2022-11-02T05:41:36.124Z,4.00
2022-11-02T05:42:36.108Z,8.00
2022-11-02T05:43:35.993Z,12.00
2022-11-02T05:44:36.024Z,12.00
2022-11-02T05:45:36.188Z,12.00
2022-11-02T05:46:36.006Z,16.00
2022-11-02T05:47:35.963Z,16.00
2022-11-02T05:48:35.986Z,20.00
2022-11-02T05:49:35.912Z,24.00
2022-11-02T05:50:35.911Z,28.00
2022-11-02T05:51:35.915Z,36.00
2022-11-02T05:52:35.901Z,40.00
2022-11-02T05:53:35.985Z,44.00
2022-11-02T05:54:35.910Z,52.00
2022-11-02T05:55:35.906Z,56.00
2022-11-02T05:56:35.858Z,68.00
2022-11-02T05:57:36.053Z,76.00
2022-11-02T05:58:35.872Z,84.00
2022-11-02T05:59:35.842Z,96.00
2022-11-02T06:00:35.819Z,112.00
2022-11-02T06:01:35.854Z,120.00
2022-11-02T06:02:35.806Z,136.00
2022-11-02T06:03:35.825Z,152.00
2022-11-02T06:04:35.752Z,164.00
2022-11-02T06:05:35.909Z,180.00
2022-11-02T06:06:35.801Z,192.00
2022-11-02T06:07:35.811Z,212.00
2022-11-02T06:08:35.951Z,228.00
2022-11-02T06:09:35.771Z,244.00
2022-11-02T06:10:35.701Z,260.00
2022-11-02T06:11:35.728Z,280.00
2022-11-02T06:12:35.728Z,304.00
2022-11-02T06:13:35.722Z,340.00
2022-11-02T06:14:35.681Z,380.00
2022-11-02T06:15:35.662Z,428.00
2022-11-02T06:16:35.691Z,460.00
2022-11-02T06:17:35.672Z,496.00
2022-11-02T06:18:35.844Z,532.00
2022-11-02T06:19:35.629Z,540.00
2022-11-02T06:20:35.636Z,560.00
2022-11-02T06:21:35.625Z,596.00
2022-11-02T06:22:35.589Z,596.00
2022-11-02T06:23:35.672Z,608.00
2022-11-02T06:24:35.600Z,640.00
2022-11-02T06:25:35.593Z,668.00
2022-11-02T06:26:35.565Z,704.00
2022-11-02T06:27:35.610Z,748.00
2022-11-02T06:28:35.521Z,796.00
2022-11-02T06:29:35.569Z,856.00
2022-11-02T06:30:35.541Z,916.00
2022-11-02T06:31:35.544Z,976.00
2022-11-02T06:32:35.532Z,1112.00
2022-11-02T06:33:35.523Z,1236.00
2022-11-02T06:34:35.492Z,1784.00
2022-11-02T06:35:35.462Z,5372.00
2022-11-02T06:36:35.454Z,9372.00
2022-11-02T06:37:35.521Z,11648.00
2022-11-02T06:38:35.465Z,12032.00
2022-11-02T06:40:35.421Z,17152.00
2022-11-02T06:41:35.512Z,17760.00
2022-11-02T06:42:44.898Z,12768.00
2022-11-02T06:43:35.408Z,7832.00
2022-11-02T06:44:35.380Z,6144.00
2022-11-02T06:45:35.371Z,7100.00
2022-11-02T06:46:35.394Z,9156.00
2022-11-02T06:47:35.450Z,4432.00
2022-11-02T06:48:35.956Z,4660.00
2022-11-02T06:49:35.321Z,4892.00
2022-11-02T06:50:35.345Z,7928.00
2022-11-02T06:51:35.358Z,18816.00
2022-11-02T06:52:35.341Z,27456.00
2022-11-02T06:53:35.318Z,32544.00
2022-11-02T06:54:35.298Z,34400.00
2022-11-02T06:55:35.298Z,34464.00
2022-11-02T06:56:35.312Z,35456.00
2022-11-02T06:57:35.310Z,37280.00
2022-11-02T06:58:35.502Z,36832.00
2022-11-02T06:59:35.288Z,33152.00
2022-11-02T07:00:35.362Z,34208.00
2022-11-02T07:01:35.579Z,37376.00
2022-11-02T07:02:35.378Z,38592.00
2022-11-02T07:03:35.269Z,37952.00
2022-11-02T07:04:35.260Z,36800.00
2022-11-02T07:05:35.260Z,37056.00
2022-11-02T07:06:35.238Z,40704.00
2022-11-02T07:07:35.219Z,41024.00
2022-11-02T07:08:35.220Z,39232.00
2022-11-02T07:09:35.220Z,42272.00
2022-11-02T07:10:35.188Z,45856.00
2022-11-02T07:11:35.221Z,37472.00
2022-11-02T07:12:35.205Z,19040.00
2022-11-02T07:13:35.196Z,6644.00
2022-11-02T07:14:35.175Z,17504.00
2022-11-02T07:15:35.204Z,41824.00
2022-11-02T07:16:35.211Z,41024.00
2022-11-02T07:17:35.200Z,41248.00
2022-11-02T07:18:35.211Z,46048.00
2022-11-02T07:19:35.171Z,47264.00
2022-11-02T07:20:35.155Z,46144.00
2022-11-02T07:21:35.168Z,45056.00
2022-11-02T07:22:35.273Z,29088.00
2022-11-02T07:23:35.279Z,51072.00
2022-11-02T07:24:35.150Z,52448.00
2022-11-02T07:25:35.148Z,50816.00
2022-11-02T07:26:35.215Z,14912.00
2022-11-02T07:27:35.204Z,29504.00
2022-11-02T07:28:35.122Z,9080.00
2022-11-02T07:29:35.149Z,5904.00
2022-11-02T07:30:35.175Z,3908.00
2022-11-02T07:31:35.162Z,4324.00
2022-11-02T07:32:35.158Z,7656.00
2022-11-02T07:33:35.145Z,6132.00
2022-11-02T07:34:35.091Z,8804.00
2022-11-02T07:35:35.106Z,13520.00
2022-11-02T07:36:35.182Z,9520.00
2022-11-02T07:37:35.117Z,8532.00
2022-11-02T07:38:35.106Z,8300.00
2022-11-02T07:39:35.188Z,8756.00
2022-11-02T07:40:35.067Z,8224.00
2022-11-02T07:41:35.058Z,5924.00
2022-11-02T07:42:35.080Z,4536.00
2022-11-02T07:43:35.953Z,2904.00
2022-11-02T07:44:35.048Z,2228.00
2022-11-02T07:45:35.077Z,1872.00
2022-11-02T07:46:35.042Z,1492.00
2022-11-02T07:47:35.066Z,1320.00
2022-11-02T07:48:35.017Z,1148.00
2022-11-02T07:49:35.038Z,1012.00
2022-11-02T07:50:35.163Z,940.00
2022-11-02T07:51:35.003Z,920.00
2022-11-02T07:52:37.633Z,868.00
2022-11-02T07:53:34.999Z,888.00
2022-11-02T07:54:35.017Z,1004.00
2022-11-02T07:55:34.990Z,1060.00
2022-11-02T07:56:34.973Z,1228.00
2022-11-02T07:57:34.953Z,1764.00
2022-11-02T07:58:34.971Z,1904.00
2022-11-02T07:59:34.992Z,2624.00
2022-11-02T08:00:34.959Z,5708.00
2022-11-02T08:01:34.990Z,66976.00
2022-11-02T08:02:35.019Z,66112.00
2022-11-02T08:03:35.070Z,61568.00
2022-11-02T08:04:34.934Z,59840.00
2022-11-02T08:05:34.897Z,64384.00
2022-11-02T08:06:34.911Z,57504.00
2022-11-02T08:07:35.463Z,51552.00
2022-11-02T08:08:34.916Z,62976.00
2022-11-02T08:09:34.955Z,61632.00
2022-11-02T08:10:37.462Z,42624.00
2022-11-02T08:11:34.949Z,49088.00
2022-11-02T08:12:34.909Z,67936.00
2022-11-02T08:13:34.983Z,56288.00
2022-11-02T08:14:34.868Z,49504.00
2022-11-02T08:15:35.049Z,56064.00
2022-11-02T08:16:34.900Z,45216.00
2022-11-02T08:17:34.873Z,42912.00
2022-11-02T08:18:34.901Z,59488.00
2022-11-02T08:19:34.925Z,62624.00
2022-11-02T08:20:34.902Z,51936.00
2022-11-02T08:21:34.875Z,54496.00
2022-11-02T08:22:34.877Z,65184.00
2022-11-02T08:23:34.949Z,66016.00
2022-11-02T08:24:34.889Z,64064.00
2022-11-02T08:25:34.863Z,64256.00
2022-11-02T08:26:34.852Z,65152.00
2022-11-02T08:27:34.866Z,63904.00
2022-11-02T08:28:34.843Z,60416.00
2022-11-02T08:29:34.842Z,62528.00
2022-11-02T08:30:34.866Z,53152.00
2022-11-02T08:31:34.823Z,22176.00
2022-11-02T08:32:34.841Z,8848.00
2022-11-02T08:33:34.820Z,8268.00
2022-11-02T08:34:34.830Z,8044.00
2022-11-02T08:35:34.876Z,7900.00
2022-11-02T08:36:34.816Z,7816.00
2022-11-02T08:37:34.814Z,7688.00
2022-11-02T08:38:34.822Z,7596.00
2022-11-02T08:39:34.819Z,7564.00
2022-11-02T08:40:34.803Z,7484.00
2022-11-02T08:41:34.816Z,7448.00
2022-11-02T08:42:34.799Z,7448.00
2022-11-02T08:43:34.826Z,7436.00
2022-11-02T08:44:37.672Z,7408.00
2022-11-02T08:46:00.603Z,7400.00
2022-11-02T08:46:35.011Z,7292.00
2022-11-02T08:47:34.796Z,7284.00
2022-11-02T08:48:34.830Z,7248.00
2022-11-02T08:49:34.810Z,7152.00
2022-11-02T08:50:34.803Z,7144.00
2022-11-02T08:51:34.802Z,7076.00
2022-11-02T08:52:40.089Z,7044.00
2022-11-02T08:53:34.773Z,6976.00
2022-11-02T08:54:34.783Z,6972.00
2022-11-02T08:55:34.846Z,6952.00
2022-11-02T08:56:34.792Z,6956.00
2022-11-02T08:57:34.847Z,6944.00
2022-11-02T08:58:34.772Z,6740.00
2022-11-02T08:59:34.841Z,6896.00
2022-11-02T09:00:34.807Z,6876.00
2022-11-02T09:01:34.875Z,6852.00
2022-11-02T09:02:34.826Z,6860.00
2022-11-02T09:03:34.794Z,6844.00
2022-11-02T09:04:34.812Z,6928.00
2022-11-02T09:05:34.875Z,6948.00
2022-11-02T09:06:34.976Z,6996.00
2022-11-02T09:07:34.859Z,6972.00
2022-11-02T09:08:34.784Z,7028.00
2022-11-02T09:09:34.845Z,7024.00
2022-11-02T09:10:34.827Z,7232.00
2022-11-02T09:11:34.784Z,7316.00
2022-11-02T09:12:34.802Z,7260.00
2022-11-02T09:13:34.863Z,7272.00
2022-11-02T09:14:34.770Z,7344.00
2022-11-02T09:15:34.827Z,7272.00
2022-11-02T09:16:40.201Z,7016.00
2022-11-02T09:17:34.857Z,6940.00
2022-11-02T09:18:34.795Z,7152.00
2022-11-02T09:19:34.890Z,7284.00
2022-11-02T09:20:34.792Z,7112.00
2022-11-02T09:21:34.783Z,7128.00
2022-11-02T09:22:34.785Z,7500.00
2022-11-02T09:23:34.809Z,5628.00
2022-11-02T09:24:34.826Z,7380.00
2022-11-02T09:25:34.814Z,7256.00
2022-11-02T09:26:34.808Z,7536.00
2022-11-02T09:27:34.812Z,5508.00
2022-11-02T09:28:34.809Z,7960.00
2022-11-02T09:29:34.846Z,8092.00
2022-11-02T09:30:34.823Z,9100.00
2022-11-02T09:31:34.932Z,9072.00
2022-11-02T09:32:34.811Z,9040.00
2022-11-02T09:33:34.818Z,9692.00
2022-11-02T09:34:34.796Z,6884.00
2022-11-02T09:35:34.881Z,7320.00
2022-11-02T09:36:34.835Z,29120.00
2022-11-02T09:37:34.842Z,12948.00
2022-11-02T09:38:34.850Z,9916.00
2022-11-02T09:39:34.950Z,7388.00
2022-11-02T09:40:34.879Z,45920.00
2022-11-02T09:41:34.995Z,8664.00
2022-11-02T09:42:34.830Z,6848.00
2022-11-02T09:43:34.808Z,45600.00
2022-11-02T09:44:34.834Z,27904.00
2022-11-02T09:45:34.835Z,16640.00
2022-11-02T09:46:34.835Z,6176.00
2022-11-02T09:48:11.237Z,5264.00
2022-11-02T09:48:35.366Z,5080.00
2022-11-02T09:49:34.834Z,4744.00
2022-11-02T09:50:34.822Z,35872.00
2022-11-02T09:51:34.910Z,3736.00
2022-11-02T09:52:34.825Z,3728.00
2022-11-02T09:53:35.017Z,3504.00
2022-11-02T09:54:34.820Z,3800.00
2022-11-02T09:55:34.944Z,3576.00
2022-11-02T09:56:34.946Z,4284.00
2022-11-02T09:57:34.806Z,4272.00
2022-11-02T09:58:34.896Z,3144.00
2022-11-02T09:59:34.791Z,3268.00
2022-11-02T10:00:34.809Z,3548.00
2022-11-02T10:01:34.870Z,3236.00
2022-11-02T10:02:35.029Z,3372.00
2022-11-02T10:03:34.830Z,30880.00
2022-11-02T10:04:34.786Z,3092.00
2022-11-02T10:05:34.754Z,3596.00
2022-11-02T10:06:34.770Z,17056.00
2022-11-02T10:07:34.761Z,4208.00
2022-11-02T10:08:34.858Z,10792.00
2022-11-02T10:09:34.737Z,5980.00
2022-11-02T10:10:34.743Z,5264.00
2022-11-02T10:11:34.871Z,4356.00
2022-11-02T10:12:34.757Z,7060.00
2022-11-02T10:13:34.768Z,6060.00
2022-11-02T10:14:34.714Z,4488.00
2022-11-02T10:15:34.769Z,3608.00
2022-11-02T10:16:34.726Z,4600.00
2022-11-02T10:17:34.716Z,6336.00
2022-11-02T10:18:35.090Z,4688.00
2022-11-02T10:19:34.729Z,4128.00
2022-11-02T10:20:34.720Z,5936.00
2022-11-02T10:21:34.791Z,6260.00
2022-11-02T10:22:34.694Z,6804.00
2022-11-02T10:23:34.675Z,6568.00
2022-11-02T10:24:34.669Z,3960.00
2022-11-02T10:25:34.674Z,4660.00
2022-11-02T10:26:34.650Z,4104.00
2022-11-02T10:27:34.978Z,3948.00
2022-11-02T10:28:34.864Z,3592.00
2022-11-02T10:29:34.684Z,3400.00
2022-11-02T10:30:34.639Z,3488.00
2022-11-02T10:31:34.668Z,3544.00
2022-11-02T10:32:34.692Z,3092.00
2022-11-02T10:33:34.656Z,3348.00
2022-11-02T10:34:34.608Z,2924.00
2022-11-02T10:35:45.911Z,2612.00
2022-11-02T10:36:34.632Z,4360.00
2022-11-02T10:37:34.601Z,2948.00
2022-11-02T10:38:34.591Z,2848.00
2022-11-02T10:39:34.613Z,2696.00
2022-11-02T10:40:34.597Z,4024.00
2022-11-02T10:41:34.635Z,4764.00
2022-11-02T10:42:34.579Z,4972.00
2022-11-02T10:43:34.713Z,3340.00
2022-11-02T10:44:34.623Z,3024.00
2022-11-02T10:45:34.581Z,4860.00
2022-11-02T10:46:34.601Z,4656.00
2022-11-02T10:47:34.582Z,5380.00
2022-11-02T10:48:34.559Z,3460.00
2022-11-02T10:49:34.594Z,3304.00
2022-11-02T10:50:34.573Z,3272.00
2022-11-02T10:51:34.555Z,3916.00
2022-11-02T10:52:34.535Z,3380.00
2022-11-02T10:53:41.100Z,3344.00
2022-11-02T10:54:34.789Z,3252.00
2022-11-02T10:55:34.670Z,4420.00
2022-11-02T10:56:34.696Z,3672.00
2022-11-02T10:57:34.547Z,5152.00
2022-11-02T10:58:34.489Z,5104.00
2022-11-02T10:59:34.540Z,4556.00
2022-11-02T11:00:34.549Z,5040.00
2022-11-02T11:01:34.541Z,4944.00
2022-11-02T11:02:34.480Z,4796.00
2022-11-02T11:03:34.465Z,4920.00
2022-11-02T11:04:34.456Z,3196.00
2022-11-02T11:05:34.478Z,3064.00
2022-11-02T11:06:34.434Z,4648.00
2022-11-02T11:07:34.449Z,4780.00
2022-11-02T11:08:34.442Z,4908.00
2022-11-02T11:09:34.446Z,4948.00
2022-11-02T11:10:34.444Z,4876.00
2022-11-02T11:11:34.399Z,4492.00
2022-11-02T11:12:34.464Z,4764.00
2022-11-02T11:15:49.932Z,4904.00
2022-11-02T11:16:34.389Z,4736.00
2022-11-02T11:20:34.425Z,4708.00
2022-11-02T11:21:34.347Z,4516.00
2022-11-02T11:22:34.347Z,4628.00
2022-11-02T11:23:34.357Z,4788.00
2022-11-02T11:24:34.543Z,4700.00
2022-11-02T11:25:34.473Z,4556.00
2022-11-02T11:26:34.339Z,4752.00
2022-11-02T11:27:34.308Z,3436.00
2022-11-02T11:28:34.334Z,5008.00
2022-11-02T11:29:34.298Z,5004.00
2022-11-02T11:31:34.528Z,5080.00
2022-11-02T11:32:34.337Z,5120.00
2022-11-02T11:33:34.301Z,4396.00
2022-11-02T11:34:34.514Z,2768.00
2022-11-02T11:35:34.273Z,3852.00
2022-11-02T11:36:34.284Z,2236.00
2022-11-02T11:37:34.326Z,5780.00
2022-11-02T11:38:34.262Z,2916.00
2022-11-02T11:39:34.251Z,2368.00
2022-11-02T11:40:34.274Z,2120.00
2022-11-02T11:41:34.250Z,2512.00
2022-11-02T11:42:34.268Z,2000.00
2022-11-02T11:43:34.257Z,1976.00
2022-11-02T11:44:34.257Z,2028.00
2022-11-02T11:45:34.267Z,3596.00
2022-11-02T11:46:34.259Z,2016.00
2022-11-02T11:47:34.283Z,2044.00
2022-11-02T11:48:34.228Z,2076.00
2022-11-02T11:50:34.214Z,2020.00
2022-11-02T11:51:34.197Z,2044.00
2022-11-02T11:52:34.258Z,2184.00
2022-11-02T11:53:34.181Z,2348.00
2022-11-02T11:54:34.181Z,2456.00
2022-11-02T11:55:34.201Z,2448.00
2022-11-02T11:56:34.185Z,2404.00
2022-11-02T11:57:34.330Z,2316.00
2022-11-02T11:58:34.201Z,2216.00
2022-11-02T11:59:34.149Z,2204.00
2022-11-02T12:00:34.180Z,2140.00
2022-11-02T12:01:34.305Z,2240.00
2022-11-02T12:02:37.904Z,2212.00
2022-11-02T12:03:34.163Z,2124.00
2022-11-02T12:04:34.148Z,2144.00
2022-11-02T12:05:34.143Z,2236.00
2022-11-02T12:06:34.114Z,2168.00
2022-11-02T12:07:34.134Z,2084.00
2022-11-02T12:08:34.113Z,2032.00
2022-11-02T12:09:34.157Z,2028.00
2022-11-02T12:10:34.129Z,2180.00
2022-11-02T12:11:34.277Z,2288.00
2022-11-02T12:12:34.279Z,2332.00
2022-11-02T12:13:34.087Z,2324.00
2022-11-02T12:14:34.126Z,2508.00
2022-11-02T12:15:34.052Z,2492.00
2022-11-02T12:16:34.058Z,2384.00
2022-11-02T12:17:34.067Z,2460.00
2022-11-02T12:18:34.087Z,2376.00
2022-11-02T12:19:34.453Z,2176.00
2022-11-02T12:20:34.030Z,3288.00
2022-11-02T12:21:34.043Z,3440.00
2022-11-02T12:22:34.044Z,3648.00
2022-11-02T12:23:34.032Z,3692.00
2022-11-02T12:24:34.197Z,3652.00
2022-11-02T12:25:34.000Z,3648.00
2022-11-02T12:26:34.040Z,3644.00
2022-11-02T12:27:34.001Z,3688.00
2022-11-02T12:28:34.039Z,3676.00
2022-11-02T12:29:33.985Z,3584.00
2022-11-02T12:30:34.002Z,3544.00
2022-11-02T12:31:34.078Z,3496.00
2022-11-02T12:32:33.976Z,3520.00
2022-11-02T12:33:33.944Z,3492.00
2022-11-02T12:34:33.950Z,2856.00
2022-11-02T12:35:34.033Z,2220.00
2022-11-02T12:36:33.959Z,2172.00
2022-11-02T12:37:40.870Z,2136.00
2022-11-02T12:38:33.975Z,2144.00
2022-11-02T12:39:33.897Z,3212.00
2022-11-02T12:40:33.904Z,3128.00
2022-11-02T12:41:33.932Z,3208.00
2022-11-02T12:42:35.035Z,3216.00
2022-11-02T12:43:33.906Z,2020.00
2022-11-02T12:44:33.890Z,1924.00